createdAt,value
2022-08-03T00:00:50.907Z,12.69
2022-08-03T00:03:21.290Z,12.59
2022-08-03T00:06:04.147Z,12.61
2022-08-03T00:08:40.123Z,12.57
2022-08-03T00:11:10.578Z,12.53
2022-08-03T00:13:41.157Z,12.45
2022-08-03T00:16:13.665Z,12.42
2022-08-03T00:18:44.087Z,12.43
2022-08-03T00:21:14.737Z,12.53
2022-08-03T00:23:52.266Z,12.53
2022-08-03T00:26:23.396Z,12.53
2022-08-03T00:28:53.758Z,12.63
2022-08-03T00:31:32.872Z,12.73
2022-08-03T00:34:15.827Z,12.66
2022-08-03T00:36:46.015Z,12.53
2022-08-03T00:39:16.515Z,12.54
2022-08-03T00:41:46.625Z,12.59
2022-08-03T00:44:16.616Z,12.68
2022-08-03T00:46:48.426Z,12.74
2022-08-03T00:49:18.225Z,12.78
2022-08-03T00:51:48.655Z,12.72
2022-08-03T00:54:19.527Z,12.66
2022-08-03T00:57:00.338Z,12.64
2022-08-03T00:59:31.747Z,12.57
2022-08-03T01:02:03.207Z,12.55
2022-08-03T01:04:33.396Z,12.54
2022-08-03T01:07:13.005Z,12.54
2022-08-03T01:09:54.168Z,12.67
2022-08-03T01:12:34.246Z,12.73
2022-08-03T01:15:12.323Z,12.73
2022-08-03T01:17:53.237Z,12.73
2022-08-03T01:20:26.475Z,12.66
2022-08-03T01:23:37.216Z,12.77
2022-08-03T01:26:27.224Z,12.79
2022-08-03T01:29:10.596Z,12.71
2022-08-03T01:32:54.510Z,12.81
2022-08-03T01:34:42.976Z,12.87
2022-08-03T01:37:14.736Z,12.77
2022-08-03T01:39:46.727Z,12.70
2022-08-03T01:42:18.829Z,12.72
2022-08-03T01:44:51.287Z,12.81
2022-08-03T01:47:24.186Z,12.81
2022-08-03T01:49:56.157Z,12.85
2022-08-03T01:52:26.526Z,12.82
2022-08-03T01:54:57.589Z,12.85
2022-08-03T01:57:29.274Z,12.79
2022-08-03T02:00:01.690Z,12.79
2022-08-03T02:02:43.970Z,12.80
2022-08-03T02:05:16.424Z,12.80
2022-08-03T02:07:49.667Z,12.87
2022-08-03T02:10:35.107Z,12.95
2022-08-03T02:13:09.187Z,12.86
2022-08-03T02:15:40.726Z,12.83
2022-08-03T02:18:13.406Z,12.91
2022-08-03T02:20:46.044Z,12.88
2022-08-03T02:23:18.579Z,12.93
2022-08-03T02:25:54.615Z,12.92
2022-08-03T02:28:29.594Z,12.91
2022-08-03T02:31:04.544Z,12.88
2022-08-03T02:33:41.607Z,12.96
2022-08-03T02:36:15.794Z,12.99
2022-08-03T02:38:51.236Z,13.04
2022-08-03T02:41:27.006Z,13.02
2022-08-03T02:44:07.095Z,13.08
2022-08-03T02:46:41.275Z,13.06
2022-08-03T02:49:49.446Z,13.08
2022-08-03T02:52:07.800Z,13.08
2022-08-03T02:54:43.413Z,13.12
2022-08-03T02:57:15.333Z,13.13
2022-08-03T02:59:46.498Z,13.05
2022-08-03T03:02:19.725Z,13.09
2022-08-03T03:05:50.938Z,13.11
2022-08-03T03:07:51.792Z,13.10
2022-08-03T03:10:24.682Z,13.09
2022-08-03T03:12:57.597Z,13.06
2022-08-03T03:15:29.515Z,13.09
2022-08-03T03:18:01.224Z,13.10
2022-08-03T03:20:34.166Z,13.11
2022-08-03T03:23:05.731Z,13.08
2022-08-03T03:25:36.075Z,13.12
2022-08-03T03:28:07.235Z,13.11
2022-08-03T03:30:37.552Z,13.10
2022-08-03T03:33:08.264Z,13.13
2022-08-03T03:35:40.613Z,13.16
2022-08-03T03:38:12.935Z,13.12
2022-08-03T03:40:43.397Z,13.15
2022-08-03T03:43:14.649Z,13.14
2022-08-03T03:45:44.886Z,13.15
2022-08-03T03:48:15.450Z,13.21
2022-08-03T03:50:47.998Z,13.28
2022-08-03T03:53:18.498Z,13.29
2022-08-03T03:55:58.914Z,13.31
2022-08-03T03:58:34.347Z,13.34
2022-08-03T04:01:04.562Z,13.37
2022-08-03T04:03:34.857Z,13.45
2022-08-03T04:06:23.617Z,13.55
2022-08-03T04:09:11.024Z,13.52
2022-08-03T04:11:45.256Z,13.64
2022-08-03T04:14:20.066Z,13.63
2022-08-03T04:16:55.256Z,13.65
2022-08-03T04:19:29.938Z,13.74
2022-08-03T04:22:05.769Z,13.78
2022-08-03T04:24:42.727Z,13.83
2022-08-03T04:27:17.047Z,14.02
2022-08-03T04:29:50.935Z,14.03
2022-08-03T04:32:25.496Z,14.08
2022-08-03T04:34:56.420Z,14.18
2022-08-03T04:37:35.077Z,14.19
2022-08-03T04:40:10.596Z,14.29
2022-08-03T04:42:42.316Z,14.34
2022-08-03T04:45:16.688Z,14.36
2022-08-03T04:47:47.255Z,14.41
2022-08-03T04:50:21.592Z,14.44
2022-08-03T04:53:08.866Z,14.52
2022-08-03T04:55:39.830Z,14.73
2022-08-03T04:58:10.015Z,14.82
2022-08-03T05:00:40.782Z,15.06
2022-08-03T05:03:20.274Z,15.11
2022-08-03T05:06:01.670Z,15.15
2022-08-03T05:08:46.874Z,15.36
2022-08-03T05:11:19.862Z,15.40
2022-08-03T05:13:50.185Z,15.47
2022-08-03T05:16:20.826Z,15.69
2022-08-03T05:18:50.949Z,15.88
2022-08-03T05:21:21.336Z,16.06
2022-08-03T05:23:52.799Z,16.28
2022-08-03T05:26:23.057Z,16.43
2022-08-03T05:28:53.568Z,16.38
2022-08-03T05:31:23.646Z,16.49
2022-08-03T05:33:54.339Z,16.57
2022-08-03T05:36:24.337Z,16.62
2022-08-03T05:38:59.556Z,17.04
2022-08-03T05:41:37.208Z,17.29
2022-08-03T05:44:08.086Z,17.41
2022-08-03T05:46:38.547Z,17.54
2022-08-03T05:49:09.759Z,17.47
2022-08-03T05:51:40.108Z,17.55
2022-08-03T05:54:11.699Z,17.48
2022-08-03T05:56:42.447Z,17.63
2022-08-03T05:59:37.002Z,17.95
2022-08-03T06:02:02.937Z,18.46
2022-08-03T06:04:33.203Z,18.64
2022-08-03T06:07:03.788Z,18.85
2022-08-03T06:10:35.524Z,19.03
2022-08-03T06:12:26.366Z,18.95
2022-08-03T06:14:57.146Z,18.82
2022-08-03T06:17:27.287Z,18.89
2022-08-03T06:20:08.837Z,18.87
2022-08-03T06:22:50.414Z,19.11
2022-08-03T06:25:23.389Z,19.48
2022-08-03T06:27:53.649Z,19.97
2022-08-03T06:30:24.550Z,20.46
2022-08-03T06:32:55.168Z,20.75
2022-08-03T06:35:28.150Z,21.18
2022-08-03T06:37:58.547Z,21.32
2022-08-03T06:40:33.219Z,21.32
2022-08-03T06:43:04.369Z,21.57
2022-08-03T06:45:35.902Z,21.76
2022-08-03T06:48:08.548Z,22.06
2022-08-03T06:50:40.677Z,22.21
2022-08-03T06:53:19.661Z,22.30
2022-08-03T06:55:55.198Z,22.48
2022-08-03T06:58:25.470Z,22.48
2022-08-03T07:00:56.595Z,22.78
2022-08-03T07:03:27.517Z,22.78
2022-08-03T07:05:58.261Z,22.88
2022-08-03T07:08:34.087Z,23.21
2022-08-03T07:11:08.278Z,23.68
2022-08-03T07:13:38.518Z,23.37
2022-08-03T07:16:09.397Z,23.55
2022-08-03T07:18:41.255Z,23.41
2022-08-03T07:21:12.999Z,23.71
2022-08-03T07:23:43.187Z,23.91
2022-08-03T07:26:15.738Z,24.38
2022-08-03T07:28:46.203Z,24.10
2022-08-03T07:31:17.020Z,24.53
2022-08-03T07:33:47.619Z,24.55
2022-08-03T07:36:18.716Z,24.72
2022-08-03T07:38:49.112Z,25.14
2022-08-03T07:41:21.280Z,25.11
2022-08-03T07:43:54.376Z,24.66
2022-08-03T07:46:25.108Z,24.50
2022-08-03T07:48:59.858Z,25.08
2022-08-03T07:51:30.686Z,25.24
2022-08-03T07:54:01.767Z,25.60
2022-08-03T07:56:34.133Z,26.03
2022-08-03T07:59:06.168Z,26.05
2022-08-03T08:01:38.256Z,25.89
2022-08-03T08:04:10.247Z,25.43
2022-08-03T08:06:40.949Z,25.76
2022-08-03T08:09:11.940Z,26.09
2022-08-03T08:11:44.253Z,26.14
2022-08-03T08:14:15.029Z,26.35
2022-08-03T08:16:46.998Z,26.79
2022-08-03T08:19:18.311Z,26.88
2022-08-03T08:21:52.951Z,26.88
2022-08-03T08:24:32.607Z,26.84
2022-08-03T08:27:05.915Z,27.41
2022-08-03T08:29:36.968Z,27.35
2022-08-03T08:32:19.999Z,27.35
2022-08-03T08:34:50.730Z,27.34
2022-08-03T08:37:21.069Z,27.66
2022-08-03T08:39:52.547Z,27.77
2022-08-03T08:42:24.630Z,27.64
2022-08-03T08:44:55.856Z,27.96
2022-08-03T08:47:27.970Z,28.26
2022-08-03T08:50:09.710Z,28.62
2022-08-03T08:52:43.447Z,28.16
2022-08-03T08:55:19.180Z,28.29
2022-08-03T08:57:54.277Z,28.47
2022-08-03T09:00:24.810Z,28.13
2022-08-03T09:02:55.385Z,28.45
2022-08-03T09:05:41.580Z,28.42
2022-08-03T09:08:16.842Z,28.31
2022-08-03T09:10:47.220Z,27.99
2022-08-03T09:13:19.357Z,28.07
2022-08-03T09:16:00.986Z,28.54
2022-08-03T09:18:33.250Z,28.65
2022-08-03T09:21:35.501Z,28.95
2022-08-03T09:24:20.636Z,28.30
2022-08-03T09:27:26.236Z,28.62
2022-08-03T09:30:00.966Z,28.73
2022-08-03T09:32:32.816Z,28.71
2022-08-03T09:35:09.557Z,29.04
2022-08-03T09:38:12.467Z,28.72
2022-08-03T09:40:37.808Z,28.48
2022-08-03T09:43:09.229Z,28.90
2022-08-03T09:45:42.740Z,28.98
2022-08-03T09:48:27.735Z,28.95
2022-08-03T09:51:12.749Z,28.90
2022-08-03T09:53:58.665Z,29.51
2022-08-03T09:56:41.947Z,29.50
2022-08-03T09:59:13.132Z,29.45
2022-08-03T10:01:46.021Z,29.28
2022-08-03T10:04:17.728Z,28.90
2022-08-03T10:07:05.597Z,28.48
2022-08-03T10:09:36.101Z,28.77
2022-08-03T10:12:15.108Z,28.76
2022-08-03T10:14:47.987Z,28.93
2022-08-03T10:17:29.017Z,28.70
2022-08-03T10:20:00.524Z,29.01
2022-08-03T10:22:34.802Z,29.46
2022-08-03T10:25:10.137Z,29.34
2022-08-03T10:27:45.918Z,29.52
2022-08-03T10:30:17.470Z,29.80
2022-08-03T10:32:55.209Z,29.74
2022-08-03T10:35:26.963Z,29.91
2022-08-03T10:38:01.138Z,30.08
2022-08-03T10:40:51.797Z,30.51
2022-08-03T10:43:29.428Z,30.03
2022-08-03T10:46:00.919Z,30.22
2022-08-03T10:48:33.239Z,29.99
2022-08-03T10:51:03.800Z,29.80
2022-08-03T10:53:38.828Z,29.55
2022-08-03T10:56:50.332Z,29.95
2022-08-03T10:59:28.052Z,29.99
2022-08-03T11:02:00.700Z,30.41
2022-08-03T11:04:33.839Z,30.39
2022-08-03T11:07:24.418Z,30.26
2022-08-03T11:09:56.397Z,30.12
2022-08-03T11:12:30.213Z,29.87
2022-08-03T11:15:04.989Z,29.70
2022-08-03T11:17:46.432Z,29.87
2022-08-03T11:20:50.580Z,29.17
2022-08-03T11:24:03.214Z,29.19
2022-08-03T11:26:33.353Z,29.62
2022-08-03T11:29:30.733Z,29.37
2022-08-03T11:32:01.629Z,29.66
2022-08-03T11:34:32.059Z,29.97
2022-08-03T11:37:30.117Z,30.07
2022-08-03T11:40:03.849Z,29.93
2022-08-03T11:42:48.678Z,29.99
2022-08-03T11:45:20.187Z,29.94
2022-08-03T11:47:55.725Z,30.11
2022-08-03T11:50:26.375Z,29.97
2022-08-03T11:52:58.307Z,29.27
2022-08-03T11:55:30.620Z,29.24
2022-08-03T11:58:58.272Z,29.59
2022-08-03T12:00:53.158Z,30.00
2022-08-03T12:03:23.702Z,30.11
2022-08-03T12:05:55.718Z,30.26
2022-08-03T12:08:37.080Z,30.35
2022-08-03T12:11:09.270Z,30.48
2022-08-03T12:14:44.207Z,30.42
2022-08-03T12:16:32.187Z,30.35
2022-08-03T12:19:02.840Z,30.36
2022-08-03T12:21:33.281Z,30.95
2022-08-03T12:24:07.309Z,32.26
2022-08-03T12:26:58.603Z,32.59
2022-08-03T12:29:31.610Z,32.51
2022-08-03T12:32:02.278Z,31.09
2022-08-03T12:34:49.110Z,30.27
2022-08-03T12:37:23.354Z,30.17
2022-08-03T12:40:03.080Z,31.32
2022-08-03T12:42:38.839Z,31.92
2022-08-03T12:45:32.435Z,32.44
2022-08-03T12:48:04.178Z,32.45
2022-08-03T12:50:36.822Z,31.95
2022-08-03T12:53:09.223Z,32.29
2022-08-03T12:56:04.828Z,32.18
2022-08-03T12:58:34.786Z,32.16
2022-08-03T13:01:09.688Z,32.41
2022-08-03T13:03:49.498Z,32.32
2022-08-03T13:06:22.520Z,32.85
2022-08-03T13:09:04.068Z,33.36
2022-08-03T13:11:55.715Z,32.63
2022-08-03T13:14:29.638Z,32.56
2022-08-03T13:17:00.504Z,32.11
2022-08-03T13:19:31.370Z,32.08
2022-08-03T13:22:04.592Z,32.15
2022-08-03T13:24:35.797Z,31.73
2022-08-03T13:28:01.326Z,32.06
2022-08-03T13:29:59.094Z,32.26
2022-08-03T13:32:29.839Z,32.00
2022-08-03T13:35:00.181Z,32.47
2022-08-03T13:37:32.628Z,32.92
2022-08-03T13:40:05.508Z,32.59
2022-08-03T13:42:38.943Z,32.69
2022-08-03T13:45:11.645Z,32.15
2022-08-03T13:47:42.240Z,31.37
2022-08-03T13:50:12.496Z,31.11
2022-08-03T13:52:42.779Z,31.88
2022-08-03T13:55:12.968Z,32.36
2022-08-03T13:58:11.380Z,32.52
2022-08-03T14:00:35.527Z,32.37
2022-08-03T14:03:13.247Z,31.69
2022-08-03T14:05:48.592Z,32.08
2022-08-03T14:08:18.953Z,32.48
2022-08-03T14:10:50.198Z,33.20
2022-08-03T14:13:22.770Z,32.97
2022-08-03T14:15:53.509Z,32.63
2022-08-03T14:18:28.477Z,32.60
2022-08-03T14:21:05.529Z,32.40
2022-08-03T14:23:38.016Z,32.33
2022-08-03T14:26:09.059Z,32.17
2022-08-03T14:28:40.961Z,32.28
2022-08-03T14:32:09.159Z,32.43
2022-08-03T14:34:01.809Z,32.66
2022-08-03T14:36:33.635Z,32.29
2022-08-03T14:39:04.507Z,32.07
2022-08-03T14:41:35.271Z,31.98
2022-08-03T14:44:07.079Z,31.81
2022-08-03T14:46:37.460Z,31.60
2022-08-03T14:50:38.973Z,31.42
2022-08-03T14:51:58.859Z,31.28
2022-08-03T14:54:31.260Z,31.26
2022-08-03T14:57:01.749Z,30.77
2022-08-03T14:59:55.734Z,30.77
2022-08-03T15:02:25.260Z,30.67
2022-08-03T15:04:55.092Z,30.80
2022-08-03T15:07:25.865Z,30.65
2022-08-03T15:09:56.222Z,30.45
2022-08-03T15:12:26.972Z,30.41
2022-08-03T15:14:59.092Z,30.50
2022-08-03T15:17:30.534Z,30.47
2022-08-03T15:20:28.828Z,30.41
2022-08-03T15:22:53.712Z,30.46
2022-08-03T15:26:32.397Z,30.53
2022-08-03T15:28:14.552Z,30.32
2022-08-03T15:30:46.193Z,30.32
2022-08-03T15:33:16.453Z,30.31
2022-08-03T15:35:47.333Z,30.14
2022-08-03T15:38:18.026Z,30.10
2022-08-03T15:40:48.060Z,30.13
2022-08-03T15:43:18.480Z,30.19
2022-08-03T15:46:19.181Z,30.36
2022-08-03T15:48:41.629Z,30.31
2022-08-03T15:51:12.252Z,30.27
2022-08-03T15:53:42.851Z,30.27
2022-08-03T15:56:18.157Z,30.23
2022-08-03T15:59:04.551Z,30.28
2022-08-03T16:01:40.901Z,30.32
2022-08-03T16:04:14.809Z,30.37
2022-08-03T16:06:45.120Z,30.41
2022-08-03T16:09:24.026Z,30.40
2022-08-03T16:12:06.459Z,30.45
2022-08-03T16:14:54.258Z,30.41
2022-08-03T16:17:26.327Z,30.46
2022-08-03T16:19:59.312Z,30.42
2022-08-03T16:22:31.790Z,30.27
2022-08-03T16:25:13.990Z,30.18
2022-08-03T16:28:03.177Z,30.11
2022-08-03T16:30:42.062Z,30.17
2022-08-03T16:33:17.373Z,30.17
2022-08-03T16:35:49.993Z,30.14
2022-08-03T16:38:20.991Z,30.20
2022-08-03T16:40:52.489Z,30.11
2022-08-03T16:43:24.871Z,30.06
2022-08-03T16:45:56.073Z,30.07
2022-08-03T16:48:30.214Z,29.92
2022-08-03T16:51:00.742Z,29.85
2022-08-03T16:53:33.732Z,29.76
2022-08-03T16:56:23.096Z,29.61
2022-08-03T16:58:53.729Z,29.51
2022-08-03T17:01:35.716Z,29.47
2022-08-03T17:04:13.427Z,29.41
2022-08-03T17:06:45.620Z,29.42
2022-08-03T17:09:20.504Z,29.37
2022-08-03T17:11:52.932Z,29.31
2022-08-03T17:14:28.526Z,29.26
2022-08-03T17:17:03.864Z,29.20
2022-08-03T17:19:36.742Z,29.19
2022-08-03T17:22:18.538Z,29.04
2022-08-03T17:24:54.533Z,28.92
2022-08-03T17:28:48.767Z,28.80
2022-08-03T17:30:21.553Z,28.62
2022-08-03T17:32:58.044Z,28.38
2022-08-03T17:35:34.397Z,28.31
2022-08-03T17:38:13.935Z,28.14
2022-08-03T17:40:48.088Z,27.91
2022-08-03T17:44:08.173Z,27.74
2022-08-03T17:46:12.921Z,27.59
2022-08-03T17:48:43.839Z,27.43
2022-08-03T17:51:24.494Z,27.30
2022-08-03T17:54:06.081Z,27.14
2022-08-03T17:57:00.290Z,27.02
2022-08-03T18:00:27.550Z,26.86
2022-08-03T18:03:20.741Z,26.61
2022-08-03T18:06:10.585Z,26.40
2022-08-03T18:08:53.231Z,26.24
2022-08-03T18:11:37.104Z,26.12
2022-08-03T18:14:16.269Z,26.03
2022-08-03T18:16:55.901Z,25.87
2022-08-03T18:20:01.918Z,25.73
2022-08-03T18:22:25.255Z,25.60
2022-08-03T18:24:58.773Z,25.47
2022-08-03T18:27:42.756Z,25.35
2022-08-03T18:30:17.141Z,25.26
2022-08-03T18:33:00.908Z,24.94
2022-08-03T18:35:52.779Z,24.54
2022-08-03T18:38:25.183Z,24.11
2022-08-03T18:40:58.451Z,23.83
2022-08-03T18:46:36.185Z,23.43
2022-08-03T18:49:22.108Z,23.30
2022-08-03T18:52:03.417Z,23.12
2022-08-03T18:55:03.855Z,23.10
2022-08-03T18:57:46.374Z,22.97
2022-08-03T19:00:24.348Z,22.91
2022-08-03T19:03:06.171Z,22.88
2022-08-03T19:05:56.558Z,22.70
2022-08-03T19:08:43.343Z,22.64
2022-08-03T19:11:28.175Z,22.54
2022-08-03T19:14:04.519Z,22.51
2022-08-03T19:16:39.438Z,22.44
2022-08-03T19:19:14.662Z,22.58
2022-08-03T19:21:49.960Z,22.50
2022-08-03T19:24:23.988Z,22.52
2022-08-03T19:26:59.019Z,22.63
2022-08-03T19:29:58.890Z,22.61
2022-08-03T19:32:30.433Z,22.41
2022-08-03T19:35:03.187Z,22.43
2022-08-03T19:37:40.154Z,22.44
2022-08-03T19:40:15.550Z,22.43
2022-08-03T19:43:04.067Z,22.31
2022-08-03T19:46:05.305Z,22.26
2022-08-03T19:48:47.023Z,22.19
2022-08-03T19:51:58.444Z,22.09
2022-08-03T19:54:25.539Z,22.04
2022-08-03T19:57:15.987Z,21.86
2022-08-03T19:59:58.429Z,21.65
2022-08-03T20:02:37.329Z,21.63
2022-08-03T20:05:14.778Z,21.45
2022-08-03T20:07:48.707Z,21.02
2022-08-03T20:10:19.641Z,20.75
2022-08-03T20:12:52.453Z,20.63
2022-08-03T20:15:31.357Z,20.72
2022-08-03T20:18:04.453Z,20.72
2022-08-03T20:20:37.419Z,20.65
2022-08-03T20:23:10.439Z,20.60
2022-08-03T20:25:48.888Z,20.42
2022-08-03T20:28:49.674Z,20.19
2022-08-03T20:31:32.505Z,20.01
2022-08-03T20:34:09.213Z,19.96
2022-08-03T20:36:45.398Z,20.07
2022-08-03T20:39:17.344Z,19.93
2022-08-03T20:41:49.761Z,19.70
2022-08-03T20:44:25.900Z,19.56
2022-08-03T20:49:51.390Z,19.50
2022-08-03T20:52:26.173Z,19.34
2022-08-03T20:54:58.646Z,19.25
2022-08-03T20:57:34.771Z,19.29
2022-08-03T21:00:13.199Z,19.27
2022-08-03T21:02:44.497Z,19.11
2022-08-03T21:05:16.580Z,18.91
2022-08-03T21:08:06.402Z,18.89
2022-08-03T21:10:42.231Z,18.74
2022-08-03T21:12:59.025Z,23.65
2022-08-03T21:13:13.048Z,19.55
2022-08-03T21:13:23.437Z,18.59
2022-08-03T21:16:12.136Z,18.61
2022-08-03T21:18:48.880Z,18.58
2022-08-03T21:21:22.769Z,18.47
2022-08-03T21:23:57.508Z,18.41
2022-08-03T21:26:30.871Z,18.29
2022-08-03T21:29:06.622Z,18.27
2022-08-03T21:31:43.251Z,18.21
2022-08-03T21:34:14.639Z,18.25
2022-08-03T21:36:47.154Z,18.25
2022-08-03T21:39:23.138Z,18.31
2022-08-03T21:41:57.503Z,18.35
2022-08-03T21:44:47.831Z,18.34
2022-08-03T21:47:20.457Z,18.27
2022-08-03T21:50:08.373Z,18.22
2022-08-03T21:52:47.499Z,18.17
2022-08-03T21:55:20.771Z,18.08
2022-08-03T21:57:56.418Z,18.08
2022-08-03T22:00:39.098Z,18.11
2022-08-03T22:03:17.929Z,18.11
2022-08-03T22:05:51.565Z,18.17
2022-08-03T22:08:36.999Z,18.12
2022-08-03T22:11:08.613Z,18.09
2022-08-03T22:13:43.575Z,17.96
2022-08-03T22:16:16.732Z,17.93
2022-08-03T22:18:48.110Z,17.92
2022-08-03T22:21:27.884Z,17.89
2022-08-03T22:24:09.152Z,17.84
2022-08-03T22:27:02.980Z,17.77
2022-08-03T22:29:35.118Z,17.62
2022-08-03T22:32:05.818Z,17.55
2022-08-03T22:34:38.791Z,17.53
2022-08-03T22:37:12.816Z,17.58
2022-08-03T22:39:46.130Z,17.60
2022-08-03T22:42:21.380Z,17.58
2022-08-03T22:44:57.783Z,17.49
2022-08-03T22:47:28.501Z,17.38
2022-08-03T22:50:31.354Z,17.38
2022-08-03T22:52:51.441Z,17.34
2022-08-03T22:55:26.359Z,17.20
2022-08-03T22:57:57.051Z,17.20
2022-08-03T23:00:27.342Z,17.14
2022-08-03T23:03:01.799Z,17.01
2022-08-03T23:06:02.507Z,16.97
2022-08-03T23:08:27.421Z,17.09
2022-08-03T23:11:05.123Z,17.08
2022-08-03T23:13:36.342Z,17.07
2022-08-03T23:16:08.371Z,17.08
2022-08-03T23:18:41.232Z,17.02
2022-08-03T23:21:12.951Z,16.96
2022-08-03T23:23:46.172Z,16.99
2022-08-03T23:26:21.865Z,16.94
2022-08-03T23:28:52.833Z,16.96
2022-08-03T23:31:24.164Z,16.90
2022-08-03T23:34:16.416Z,16.77
2022-08-03T23:36:49.413Z,16.77
2022-08-03T23:39:22.347Z,16.78
2022-08-03T23:41:54.933Z,16.87
2022-08-03T23:44:26.973Z,16.82
2022-08-03T23:46:56.945Z,16.75
2022-08-03T23:49:27.315Z,16.75
2022-08-03T23:52:04.575Z,16.81
2022-08-03T23:54:48.223Z,16.77
2022-08-03T23:57:27.803Z,16.69
